Time;durP1;ratioP1;P1;durP2;ratioP2;P2;SDS_P1;SDS_P2;PMS_P1;PMS_P2;Temp;Humidity;BMP_temperature;BMP_pressure;BME280_temperature;BME280_humidity;BME280_pressure;Samples;Min_cycle;Max_cycle;Signal;HPM_P1;HPM_P2
2022/01/13 00:02:17;;;;;;;1.30;0.98;;;;;;;;;;5071491;28;20099;-59
2022/01/13 00:04:43;;;;;;;0.80;0.80;;;;;;;;;;5054324;28;20036;-60
2022/01/13 00:07:10;;;;;;;0.30;0.30;;;;;;;;;;5072046;28;20025;-60
2022/01/13 00:09:36;;;;;;;0.65;0.65;;;;;;;;;;5072112;28;20039;-60
2022/01/13 00:12:01;;;;;;;0.20;0.20;;;;;;;;;;5071847;28;20028;-60
2022/01/13 00:17:12;;;;;;;11.05;2.42;;;;;;;;;;5053856;28;20029;-60
2022/01/13 00:24:43;;;;;;;4.95;4.55;;;;;;;;;;5071558;28;20037;-60
2022/01/13 00:27:12;;;;;;;1.13;1.13;;;;;;;;;;5071677;28;20481;-60
2022/01/13 00:29:40;;;;;;;0.10;0.10;;;;;;;;;;5053856;28;20040;-61
2022/01/13 00:32:07;;;;;;;0.38;0.38;;;;;;;;;;5053689;28;20278;-61
2022/01/13 00:34:32;;;;;;;1.65;0.98;;;;;;;;;;5071613;28;20036;-59
2022/01/13 00:36:58;;;;;;;2.90;2.80;;;;;;;;;;5053578;28;20036;-59
2022/01/13 00:39:24;;;;;;;0.13;0.13;;;;;;;;;;5071456;28;20111;-61
2022/01/13 00:41:49;;;;;;;0.20;0.20;;;;;;;;;;5071528;28;20036;-61
2022/01/13 00:44:19;;;;;;;0.47;0.47;;;;;;;;;;5071518;28;20024;-60
2022/01/13 00:46:47;;;;;;;0.45;0.45;;;;;;;;;;5073813;28;20119;-61
2022/01/13 00:49:13;;;;;;;0.10;0.10;;;;;;;;;;5074966;28;20353;-61
2022/01/13 00:51:39;;;;;;;1.27;1.27;;;;;;;;;;5074809;28;20040;-61
2022/01/13 00:54:06;;;;;;;2.58;0.70;;;;;;;;;;5056798;28;20021;-60
2022/01/13 00:56:33;;;;;;;0.25;0.25;;;;;;;;;;5075070;28;20107;-60
2022/01/13 00:58:59;;;;;;;0.30;0.30;;;;;;;;;;5075085;28;20062;-62
2022/01/13 01:01:25;;;;;;;0.10;0.10;;;;;;;;;;5074883;28;20040;-61
2022/01/13 01:03:50;;;;;;;0.13;0.13;;;;;;;;;;5074797;28;20115;-61
2022/01/13 01:06:16;;;;;;;0.10;0.10;;;;;;;;;;5074416;28;20029;-61
2022/01/13 01:08:42;;;;;;;0.40;0.40;;;;;;;;;;5074449;28;20029;-61
2022/01/13 01:11:07;;;;;;;0.10;0.10;;;;;;;;;;5056672;28;20039;-60
2022/01/13 01:13:35;;;;;;;0.20;0.20;;;;;;;;;;5074451;28;20021;-60
2022/01/13 01:16:05;;;;;;;0.35;0.35;;;;;;;;;;5074529;28;20082;-60
2022/01/13 01:23:30;;;;;;;0.20;0.20;;;;;;;;;;5074276;28;20032;-61
2022/01/13 01:28:54;;;;;;;0.10;0.10;;;;;;;;;;5042998;28;20474;-60
2022/01/13 01:31:29;;;;;;;0.10;0.10;;;;;;;;;;5074344;28;20063;-60
2022/01/13 01:34:14;;;;;;;0.10;0.10;;;;;;;;;;5074195;28;20040;-60
2022/01/13 01:36:40;;;;;;;0.10;0.10;;;;;;;;;;5074623;28;20059;-60
2022/01/13 01:39:07;;;;;;;0.73;0.73;;;;;;;;;;5074108;28;20036;-60
2022/01/13 01:41:37;;;;;;;0.10;0.10;;;;;;;;;;5039670;28;20051;-59
2022/01/13 01:44:10;;;;;;;0.10;0.10;;;;;;;;;;5073889;28;20029;-61
2022/01/13 01:46:37;;;;;;;0.20;0.20;;;;;;;;;;5074524;28;20033;-60
2022/01/13 01:49:08;;;;;;;0.10;0.10;;;;;;;;;;5074304;28;20036;-60
2022/01/13 01:51:33;;;;;;;0.43;0.43;;;;;;;;;;5073838;28;20082;-60
2022/01/13 01:53:59;;;;;;;0.10;0.10;;;;;;;;;;5074097;28;20025;-60
2022/01/13 01:56:24;;;;;;;0.10;0.10;;;;;;;;;;5073796;28;20029;-60
2022/01/13 01:58:50;;;;;;;0.10;0.10;;;;;;;;;;5072795;28;20395;-60
2022/01/13 02:01:16;;;;;;;0.10;0.10;;;;;;;;;;5073977;28;20024;-60
2022/01/13 02:03:41;;;;;;;0.13;0.13;;;;;;;;;;5073518;28;20435;-60
2022/01/13 02:06:07;;;;;;;0.20;0.20;;;;;;;;;;5039058;28;20040;-59
2022/01/13 02:08:33;;;;;;;1.85;1.55;;;;;;;;;;5073901;28;20504;-60
2022/01/13 02:10:59;;;;;;;0.20;0.20;;;;;;;;;;5073465;28;20093;-59
2022/01/13 02:13:32;;;;;;;0.15;0.15;;;;;;;;;;5073720;28;20028;-61
2022/01/13 02:16:04;;;;;;;0.10;0.10;;;;;;;;;;5056078;28;20123;-60
2022/01/13 02:18:31;;;;;;;0.13;0.13;;;;;;;;;;5073650;28;20052;-59
2022/01/13 02:20:56;;;;;;;0.90;0.90;;;;;;;;;;5055750;28;20036;-60
2022/01/13 02:23:28;;;;;;;0.10;0.10;;;;;;;;;;5073579;28;20098;-60
2022/01/13 02:25:53;;;;;;;0.10;0.10;;;;;;;;;;5055439;28;20036;-61
2022/01/13 02:28:19;;;;;;;0.10;0.10;;;;;;;;;;5055273;28;20029;-60
2022/01/13 02:30:44;;;;;;;0.20;0.20;;;;;;;;;;5073430;28;20028;-60
2022/01/13 02:33:10;;;;;;;2.22;1.30;;;;;;;;;;5073198;28;20078;-60
2022/01/13 02:35:36;;;;;;;0.30;0.30;;;;;;;;;;5055508;28;20132;-60
2022/01/13 02:38:01;;;;;;;0.10;0.10;;;;;;;;;;5073230;28;20032;-60
2022/01/13 02:40:27;;;;;;;0.40;0.40;;;;;;;;;;5073338;28;20016;-60
2022/01/13 02:42:52;;;;;;;0.10;0.10;;;;;;;;;;5073149;28;20039;-61
2022/01/13 02:45:21;;;;;;;0.10;0.10;;;;;;;;;;5073346;28;20077;-59
2022/01/13 02:50:12;;;;;;;0.13;0.13;;;;;;;;;;5055318;28;20032;-61
2022/01/13 02:52:38;;;;;;;0.10;0.10;;;;;;;;;;5073222;28;20174;-61
2022/01/13 02:55:04;;;;;;;0.10;0.10;;;;;;;;;;5072739;28;20029;-61
2022/01/13 02:57:31;;;;;;;0.20;0.20;;;;;;;;;;5072863;28;20036;-60
2022/01/13 02:59:56;;;;;;;0.10;0.10;;;;;;;;;;5054979;28;20036;-61
2022/01/13 03:02:28;;;;;;;0.20;0.20;;;;;;;;;;5072726;28;20043;-60
2022/01/13 03:04:54;;;;;;;0.20;0.20;;;;;;;;;;5072840;28;20072;-60
2022/01/13 03:07:20;;;;;;;0.10;0.10;;;;;;;;;;5072944;28;20056;-60
2022/01/13 03:09:45;;;;;;;0.10;0.10;;;;;;;;;;5054643;28;20028;-62
2022/01/13 03:12:11;;;;;;;0.20;0.20;;;;;;;;;;5072926;28;20031;-60
2022/01/13 03:14:36;;;;;;;0.10;0.10;;;;;;;;;;5072817;28;20090;-60
2022/01/13 03:17:02;;;;;;;0.20;0.20;;;;;;;;;;5072637;28;20042;-60
2022/01/13 03:19:28;;;;;;;0.10;0.10;;;;;;;;;;5072752;28;20036;-60
2022/01/13 03:21:53;;;;;;;0.10;0.10;;;;;;;;;;5072670;28;20022;-60
2022/01/13 03:24:18;;;;;;;0.10;0.10;;;;;;;;;;5072431;28;20091;-60
2022/01/13 03:26:47;;;;;;;0.47;0.47;;;;;;;;;;5072383;28;20029;-60
2022/01/13 03:31:38;;;;;;;0.10;0.10;;;;;;;;;;5072455;28;20111;-59
2022/01/13 03:34:04;;;;;;;0.30;0.30;;;;;;;;;;5054822;28;20036;-59
2022/01/13 03:36:29;;;;;;;0.10;0.10;;;;;;;;;;5072504;28;20040;-60
2022/01/13 03:38:55;;;;;;;0.60;0.60;;;;;;;;;;5072255;28;20040;-61
2022/01/13 03:41:21;;;;;;;0.10;0.10;;;;;;;;;;5072355;28;20036;-60
2022/01/13 03:43:47;;;;;;;0.10;0.10;;;;;;;;;;5072226;28;20021;-60
2022/01/13 03:46:14;;;;;;;17.83;12.07;;;;;;;;;;5072424;28;20024;-60
2022/01/13 03:48:40;;;;;;;0.10;0.10;;;;;;;;;;5072622;28;20423;-60
2022/01/13 03:51:06;;;;;;;0.10;0.10;;;;;;;;;;5072110;28;20037;-60
2022/01/13 03:53:31;;;;;;;0.85;0.85;;;;;;;;;;5072221;28;20042;-60
2022/01/13 03:56:15;;;;;;;0.52;0.52;;;;;;;;;;5071878;28;20027;-60
2022/01/13 03:58:44;;;;;;;0.20;0.20;;;;;;;;;;5054054;28;20086;-60
2022/01/13 04:01:15;;;;;;;0.40;0.40;;;;;;;;;;5072306;28;20090;-59
2022/01/13 04:03:41;;;;;;;0.10;0.10;;;;;;;;;;5050302;28;20037;-61
2022/01/13 04:06:09;;;;;;;0.20;0.20;;;;;;;;;;5068216;28;20549;-61
2022/01/13 04:08:34;;;;;;;0.10;0.10;;;;;;;;;;5050192;28;20452;-60
2022/01/13 04:11:03;;;;;;;3.33;3.15;;;;;;;;;;5050482;28;20116;-62
2022/01/13 04:16:13;;;;;;;0.17;0.17;;;;;;;;;;5068081;28;20060;-60
2022/01/13 04:18:39;;;;;;;0.95;0.95;;;;;;;;;;5068038;28;20476;-62
2022/01/13 04:21:05;;;;;;;2.60;2.00;;;;;;;;;;5051307;28;20051;-61
2022/01/13 04:23:31;;;;;;;6.25;1.10;;;;;;;;;;5071597;28;20032;-60
2022/01/13 04:25:56;;;;;;;0.32;0.32;;;;;;;;;;5071089;28;20072;-60
2022/01/13 04:28:27;;;;;;;0.15;0.15;;;;;;;;;;5071521;28;20048;-61
2022/01/13 04:31:03;;;;;;;0.10;0.10;;;;;;;;;;5071258;28;20044;-62
2022/01/13 04:33:33;;;;;;;0.20;0.20;;;;;;;;;;5071699;28;20070;-60
2022/01/13 04:36:02;;;;;;;0.73;0.73;;;;;;;;;;5071223;28;20044;-61
2022/01/13 04:38:27;;;;;;;0.10;0.10;;;;;;;;;;5053494;28;20098;-61
2022/01/13 04:40:58;;;;;;;0.15;0.15;;;;;;;;;;5052986;28;20025;-61
2022/01/13 04:43:24;;;;;;;0.10;0.10;;;;;;;;;;5071704;28;20032;-61
2022/01/13 04:45:50;;;;;;;0.10;0.10;;;;;;;;;;5071099;28;20048;-60
2022/01/13 04:48:16;;;;;;;0.50;0.50;;;;;;;;;;5071331;28;20124;-60
2022/01/13 04:50:42;;;;;;;1.38;1.27;;;;;;;;;;5070784;28;20446;-61
2022/01/13 04:53:08;;;;;;;0.17;0.17;;;;;;;;;;5071387;28;20503;-60
2022/01/13 04:55:36;;;;;;;0.10;0.10;;;;;;;;;;5070953;28;20040;-60
2022/01/13 04:58:02;;;;;;;0.10;0.10;;;;;;;;;;5071163;28;20028;-58
2022/01/13 05:00:29;;;;;;;0.93;0.85;;;;;;;;;;5070614;28;20139;-61
2022/01/13 05:02:54;;;;;;;1.30;1.20;;;;;;;;;;5070476;28;20029;-61
2022/01/13 05:05:21;;;;;;;0.10;0.10;;;;;;;;;;5070993;28;20031;-60
2022/01/13 05:07:47;;;;;;;0.20;0.20;;;;;;;;;;5070708;28;20029;-60
2022/01/13 05:10:12;;;;;;;0.10;0.10;;;;;;;;;;5070871;28;20028;-62
2022/01/13 05:12:43;;;;;;;0.10;0.10;;;;;;;;;;5071042;28;20036;-61
2022/01/13 05:15:14;;;;;;;0.10;0.10;;;;;;;;;;5070764;28;20059;-61
2022/01/13 05:20:28;;;;;;;0.20;0.20;;;;;;;;;;5070856;28;20079;-61
2022/01/13 05:22:54;;;;;;;0.10;0.10;;;;;;;;;;5052465;28;20024;-61
2022/01/13 05:25:20;;;;;;;0.10;0.10;;;;;;;;;;5070450;28;20546;-60
2022/01/13 05:27:46;;;;;;;0.10;0.10;;;;;;;;;;5070538;28;20037;-61
2022/01/13 05:30:12;;;;;;;0.10;0.10;;;;;;;;;;5070497;28;20036;-61
2022/01/13 05:32:38;;;;;;;0.10;0.10;;;;;;;;;;5070140;28;20040;-60
2022/01/13 05:35:03;;;;;;;0.10;0.10;;;;;;;;;;5070220;28;20449;-62
2022/01/13 05:37:30;;;;;;;0.10;0.10;;;;;;;;;;5070552;28;20024;-60
2022/01/13 05:39:56;;;;;;;0.10;0.10;;;;;;;;;;5052282;28;20028;-60
2022/01/13 05:42:21;;;;;;;0.10;0.10;;;;;;;;;;5052702;28;20486;-60
2022/01/13 05:44:47;;;;;;;0.10;0.10;;;;;;;;;;5051722;28;20041;-63
2022/01/13 05:47:13;;;;;;;0.20;0.20;;;;;;;;;;5071039;28;20040;-60
2022/01/13 05:49:40;;;;;;;0.10;0.10;;;;;;;;;;5052568;28;20395;-61
2022/01/13 05:52:10;;;;;;;0.10;0.10;;;;;;;;;;5070340;28;20040;-61
2022/01/13 05:54:35;;;;;;;;;;;;;;;;;;5070457;28;20036;-61
2022/01/13 05:57:01;;;;;;;0.10;0.10;;;;;;;;;;5070084;28;20264;-62
2022/01/13 05:59:27;;;;;;;0.13;0.13;;;;;;;;;;5052298;28;20033;-61
2022/01/13 06:01:52;;;;;;;0.10;0.10;;;;;;;;;;5069964;28;20135;-61
2022/01/13 06:04:18;;;;;;;0.10;0.10;;;;;;;;;;5069596;28;20378;-61
2022/01/13 06:06:43;;;;;;;0.13;0.13;;;;;;;;;;5069401;28;20032;-61
2022/01/13 06:09:09;;;;;;;0.20;0.20;;;;;;;;;;5069609;28;20506;-61
2022/01/13 06:11:44;;;;;;;0.10;0.10;;;;;;;;;;5070107;28;20048;-58
2022/01/13 06:14:10;;;;;;;0.10;0.10;;;;;;;;;;5051814;28;20068;-61
2022/01/13 06:16:35;;;;;;;0.10;0.10;;;;;;;;;;5069494;28;20432;-61
2022/01/13 06:19:02;;;;;;;0.10;0.10;;;;;;;;;;5069815;28;20368;-60
2022/01/13 06:21:27;;;;;;;0.10;0.10;;;;;;;;;;5069742;28;20492;-61
2022/01/13 06:23:53;;;;;;;0.17;0.17;;;;;;;;;;5051764;28;20074;-60
2022/01/13 06:26:19;;;;;;;0.10;0.10;;;;;;;;;;5069201;28;20032;-64
2022/01/13 06:28:45;;;;;;;0.10;0.10;;;;;;;;;;5069513;28;20078;-61
2022/01/13 06:31:10;;;;;;;0.10;0.10;;;;;;;;;;5069142;28;20040;-63
2022/01/13 06:33:36;;;;;;;0.10;0.10;;;;;;;;;;5069523;28;20430;-62
2022/01/13 06:36:04;;;;;;;0.10;0.10;;;;;;;;;;5051278;28;20037;-61
2022/01/13 06:38:29;;;;;;;0.10;0.10;;;;;;;;;;5069641;28;20056;-60
2022/01/13 06:40:55;;;;;;;0.10;0.10;;;;;;;;;;5051314;28;20064;-62
2022/01/13 06:43:20;;;;;;;0.15;0.15;;;;;;;;;;5050900;28;20028;-61
2022/01/13 06:45:47;;;;;;;0.10;0.10;;;;;;;;;;5051483;28;20066;-60
2022/01/13 06:48:12;;;;;;;0.10;0.10;;;;;;;;;;5069376;28;20028;-63
2022/01/13 06:50:38;;;;;;;0.10;0.10;;;;;;;;;;5069090;28;20112;-61
2022/01/13 06:53:03;;;;;;;0.10;0.10;;;;;;;;;;5069107;28;20036;-61
2022/01/13 06:55:29;;;;;;;0.10;0.10;;;;;;;;;;5069294;28;20045;-61
2022/01/13 06:57:54;;;;;;;0.10;0.10;;;;;;;;;;5069228;28;20032;-61
2022/01/13 07:00:21;;;;;;;0.17;0.17;;;;;;;;;;5068853;28;20024;-61
2022/01/13 07:02:47;;;;;;;0.10;0.10;;;;;;;;;;5068731;28;20455;-60
2022/01/13 07:05:12;;;;;;;0.10;0.10;;;;;;;;;;5068739;28;20124;-63
2022/01/13 07:07:39;;;;;;;0.10;0.10;;;;;;;;;;5088262;28;20059;-62
2022/01/13 07:10:06;;;;;;;0.10;0.10;;;;;;;;;;5095921;28;20028;-62
2022/01/13 07:12:31;;;;;;;0.10;0.10;;;;;;;;;;5091381;28;20368;-64
2022/01/13 07:14:57;;;;;;;0.10;0.10;;;;;;;;;;5070697;28;20852;-60
2022/01/13 07:17:23;;;;;;;0.10;0.10;;;;;;;;;;5089319;28;20061;-62
2022/01/13 07:19:51;;;;;;;0.13;0.13;;;;;;;;;;5089141;28;20082;-61
2022/01/13 07:22:17;;;;;;;0.57;0.57;;;;;;;;;;5070926;28;20067;-62
2022/01/13 07:24:43;;;;;;;0.10;0.10;;;;;;;;;;5088721;28;20337;-60
2022/01/13 07:27:08;;;;;;;0.20;0.20;;;;;;;;;;5085544;28;20031;-61
2022/01/13 07:29:34;;;;;;;0.10;0.10;;;;;;;;;;5088622;28;20360;-62
2022/01/13 07:32:00;;;;;;;0.10;0.10;;;;;;;;;;5088608;28;20040;-61
2022/01/13 07:34:25;;;;;;;0.10;0.10;;;;;;;;;;5088872;28;20042;-61
2022/01/13 07:36:51;;;;;;;0.20;0.20;;;;;;;;;;5088536;28;20032;-61
2022/01/13 07:39:17;;;;;;;0.30;0.30;;;;;;;;;;5088522;28;20117;-59
2022/01/13 07:41:43;;;;;;;0.25;0.25;;;;;;;;;;5070302;28;20058;-61
2022/01/13 07:44:12;;;;;;;0.25;0.25;;;;;;;;;;5053531;28;20032;-60
2022/01/13 07:46:37;;;;;;;0.25;0.25;;;;;;;;;;5079141;28;20107;-60
2022/01/13 07:49:03;;;;;;;0.22;0.22;;;;;;;;;;5080191;28;20024;-61
2022/01/13 07:51:31;;;;;;;0.85;0.80;;;;;;;;;;5079688;28;20037;-59
2022/01/13 07:53:56;;;;;;;0.30;0.30;;;;;;;;;;5077574;28;20020;-60
2022/01/13 07:56:22;;;;;;;0.40;0.40;;;;;;;;;;5080395;28;20032;-61
2022/01/13 07:58:47;;;;;;;0.20;0.20;;;;;;;;;;5080289;28;20025;-59
2022/01/13 08:01:13;;;;;;;0.20;0.20;;;;;;;;;;5085107;28;20051;-61
2022/01/13 08:03:39;;;;;;;0.20;0.20;;;;;;;;;;5069082;28;20051;-61
2022/01/13 08:06:04;;;;;;;0.20;0.20;;;;;;;;;;5084219;28;20020;-60
2022/01/13 08:08:31;;;;;;;0.13;0.13;;;;;;;;;;5069140;28;20387;-60
2022/01/13 08:10:56;;;;;;;0.20;0.20;;;;;;;;;;5063548;28;20411;-61
2022/01/13 08:13:21;;;;;;;0.20;0.20;;;;;;;;;;5080622;28;20101;-60
2022/01/13 08:15:51;;;;;;;0.20;0.20;;;;;;;;;;5079842;28;20377;-60
2022/01/13 08:21:00;;;;;;;0.20;0.20;;;;;;;;;;5080654;28;20064;-60
2022/01/13 08:23:26;;;;;;;0.20;0.20;;;;;;;;;;5078763;28;20059;-63
2022/01/13 08:25:51;;;;;;;0.20;0.20;;;;;;;;;;5076406;28;20727;-60
2022/01/13 08:28:17;;;;;;;0.20;0.20;;;;;;;;;;5080824;28;20035;-66
2022/01/13 08:30:42;;;;;;;0.25;0.25;;;;;;;;;;5074341;28;20081;-66
2022/01/13 08:33:08;;;;;;;0.30;0.30;;;;;;;;;;5061400;28;20116;-65
2022/01/13 08:35:33;;;;;;;0.20;0.20;;;;;;;;;;5078574;28;20055;-67
2022/01/13 08:38:05;;;;;;;0.20;0.20;;;;;;;;;;5060373;28;20042;-66
2022/01/13 08:40:34;;;;;;;0.30;0.30;;;;;;;;;;5060753;28;20182;-66
2022/01/13 08:43:00;;;;;;;0.50;0.50;;;;;;;;;;5050653;28;20028;-65
2022/01/13 08:45:26;;;;;;;0.22;0.22;;;;;;;;;;5079927;28;20032;-65
2022/01/13 08:47:51;;;;;;;0.28;0.28;;;;;;;;;;5046102;28;20127;-65
2022/01/13 08:50:17;;;;;;;0.50;0.50;;;;;;;;;;5078762;28;20033;-65
2022/01/13 08:52:44;;;;;;;1.40;1.30;;;;;;;;;;5086716;28;20116;-66
2022/01/13 08:55:10;;;;;;;0.63;0.63;;;;;;;;;;5045070;28;20052;-65
2022/01/13 08:57:35;;;;;;;0.30;0.30;;;;;;;;;;5078703;28;20133;-65
2022/01/13 09:00:01;;;;;;;0.40;0.40;;;;;;;;;;5078690;28;20514;-68
2022/01/13 09:02:30;;;;;;;0.30;0.30;;;;;;;;;;5077165;28;20155;-66
2022/01/13 09:04:55;;;;;;;1.65;1.55;;;;;;;;;;5060990;28;20024;-69
2022/01/13 09:07:21;;;;;;;0.30;0.30;;;;;;;;;;5076108;28;20644;-69
2022/01/13 09:09:46;;;;;;;0.30;0.30;;;;;;;;;;5078509;28;20480;-67
2022/01/13 09:12:11;;;;;;;0.40;0.40;;;;;;;;;;5077853;28;20032;-68
2022/01/13 09:14:38;;;;;;;0.30;0.30;;;;;;;;;;5078940;28;20031;-68
2022/01/13 09:17:09;;;;;;;0.30;0.30;;;;;;;;;;5055004;28;20036;-65
2022/01/13 09:19:34;;;;;;;0.45;0.45;;;;;;;;;;5056620;28;20029;-66
2022/01/13 09:22:00;;;;;;;0.30;0.30;;;;;;;;;;5071674;28;20445;-67
2022/01/13 09:24:25;;;;;;;0.30;0.30;;;;;;;;;;5071744;28;20047;-65
2022/01/13 09:26:51;;;;;;;0.28;0.28;;;;;;;;;;5090520;28;20036;-65
2022/01/13 09:29:17;;;;;;;0.30;0.30;;;;;;;;;;5090672;28;20032;-68
2022/01/13 09:31:44;;;;;;;0.40;0.40;;;;;;;;;;5087087;28;20032;-66
2022/01/13 09:34:10;;;;;;;0.30;0.30;;;;;;;;;;5053822;28;20067;-65
2022/01/13 09:36:37;;;;;;;0.30;0.30;;;;;;;;;;5069479;28;20085;-66
2022/01/13 09:39:04;;;;;;;0.32;0.32;;;;;;;;;;5053434;28;20040;-66
2022/01/13 09:41:32;;;;;;;0.30;0.30;;;;;;;;;;5070668;28;20717;-67
2022/01/13 09:44:04;;;;;;;0.30;0.30;;;;;;;;;;5054249;28;20025;-68
2022/01/13 09:46:31;;;;;;;0.40;0.40;;;;;;;;;;5033459;28;20052;-67
2022/01/13 09:49:02;;;;;;;0.20;0.20;;;;;;;;;;5041145;28;20060;-66
2022/01/13 09:51:28;;;;;;;0.30;0.30;;;;;;;;;;5071846;28;20463;-65
2022/01/13 09:53:53;;;;;;;0.28;0.28;;;;;;;;;;5034306;28;20067;-65
2022/01/13 09:56:20;;;;;;;0.30;0.30;;;;;;;;;;5068975;28;20048;-71
2022/01/13 09:58:46;;;;;;;0.30;0.30;;;;;;;;;;5047185;28;20028;-66
2022/01/13 10:01:11;;;;;;;0.40;0.40;;;;;;;;;;5089008;28;20040;-66
2022/01/13 10:03:37;;;;;;;0.30;0.30;;;;;;;;;;5088490;28;20028;-64
2022/01/13 10:06:13;;;;;;;1.60;1.60;;;;;;;;;;5069516;28;20047;-65
2022/01/13 10:08:49;;;;;;;0.40;0.40;;;;;;;;;;5069394;28;20040;-66
2022/01/13 10:11:24;;;;;;;0.40;0.40;;;;;;;;;;5052389;28;20235;-63
2022/01/13 10:17:00;;;;;;;0.30;0.30;;;;;;;;;;5061804;28;20491;-66
2022/01/13 10:19:26;;;;;;;0.40;0.40;;;;;;;;;;5053184;28;20115;-65
2022/01/13 10:21:56;;;;;;;0.38;0.38;;;;;;;;;;5077610;28;20119;-67
2022/01/13 10:24:24;;;;;;;0.30;0.30;;;;;;;;;;5069591;28;20032;-71
2022/01/13 10:27:15;;;;;;;0.43;0.43;;;;;;;;;;5034427;28;20116;-68
2022/01/13 10:29:47;;;;;;;0.35;0.35;;;;;;;;;;5047870;28;20102;-66
2022/01/13 10:32:14;;;;;;;0.73;0.73;;;;;;;;;;5069480;28;20047;-65
2022/01/13 10:34:41;;;;;;;0.55;0.55;;;;;;;;;;5050136;28;20041;-67
2022/01/13 10:37:13;;;;;;;0.40;0.40;;;;;;;;;;5049497;28;20033;-65
2022/01/13 10:39:48;;;;;;;0.30;0.30;;;;;;;;;;5032515;28;20201;-65
2022/01/13 10:45:01;;;;;;;0.45;0.45;;;;;;;;;;5053676;28;20139;-66
2022/01/13 10:47:27;;;;;;;0.40;0.40;;;;;;;;;;5049909;28;20028;-65
2022/01/13 10:49:58;;;;;;;0.20;0.20;;;;;;;;;;5033366;28;20075;-66
2022/01/13 10:52:26;;;;;;;0.40;0.40;;;;;;;;;;5069511;28;20085;-65
2022/01/13 10:54:55;;;;;;;0.30;0.30;;;;;;;;;;5050690;28;20480;-66
2022/01/13 10:57:22;;;;;;;0.30;0.30;;;;;;;;;;5034517;28;20454;-74
2022/01/13 10:59:47;;;;;;;0.35;0.35;;;;;;;;;;5051019;28;20396;-66
2022/01/13 11:02:13;;;;;;;0.30;0.30;;;;;;;;;;5068967;28;20024;-64
2022/01/13 11:04:38;;;;;;;0.30;0.30;;;;;;;;;;5068394;28;20040;-67
2022/01/13 11:07:14;;;;;;;1.25;1.15;;;;;;;;;;5068920;28;20031;-65
2022/01/13 11:09:43;;;;;;;0.30;0.30;;;;;;;;;;5034240;28;20555;-69
2022/01/13 11:12:10;;;;;;;0.40;0.40;;;;;;;;;;5050763;28;20480;-71
2022/01/13 11:14:42;;;;;;;0.28;0.28;;;;;;;;;;5060629;28;20376;-67
2022/01/13 11:17:10;;;;;;;0.57;0.43;;;;;;;;;;5046674;28;20029;-65
2022/01/13 11:19:36;;;;;;;0.30;0.30;;;;;;;;;;5067722;28;20426;-65
2022/01/13 11:22:02;;;;;;;0.40;0.40;;;;;;;;;;5049562;28;20369;-77
2022/01/13 11:24:28;;;;;;;0.30;0.30;;;;;;;;;;5068432;28;20040;-66
2022/01/13 11:26:55;;;;;;;0.30;0.30;;;;;;;;;;5033033;28;20039;-66
2022/01/13 11:29:22;;;;;;;0.50;0.50;;;;;;;;;;5049329;28;20070;-72
2022/01/13 11:31:50;;;;;;;0.50;0.50;;;;;;;;;;5049204;28;20093;-66
2022/01/13 11:34:16;;;;;;;0.20;0.20;;;;;;;;;;5067695;28;20495;-64
2022/01/13 11:36:43;;;;;;;0.38;0.38;;;;;;;;;;5032744;28;20029;-67
2022/01/13 11:39:09;;;;;;;0.50;0.50;;;;;;;;;;5049726;28;20044;-68
2022/01/13 11:41:54;;;;;;;0.30;0.30;;;;;;;;;;5067823;28;20043;-68
2022/01/13 11:44:22;;;;;;;0.50;0.45;;;;;;;;;;5067356;28;20044;-67
2022/01/13 11:46:49;;;;;;;0.30;0.30;;;;;;;;;;5067473;28;20040;-66
2022/01/13 11:49:18;;;;;;;2.28;1.23;;;;;;;;;;5067501;28;20111;-67
2022/01/13 11:51:48;;;;;;;0.30;0.30;;;;;;;;;;5049663;28;20024;-69
2022/01/13 11:54:26;;;;;;;0.30;0.30;;;;;;;;;;5049553;28;20114;-66
2022/01/13 11:57:12;;;;;;;0.35;0.35;;;;;;;;;;5067002;28;20462;-69
2022/01/13 11:59:38;;;;;;;0.30;0.30;;;;;;;;;;5049472;28;20131;-66
2022/01/13 12:02:23;;;;;;;0.30;0.30;;;;;;;;;;5049762;28;20104;-78
2022/01/13 12:05:01;;;;;;;1.83;1.10;;;;;;;;;;5048679;28;20094;-66
2022/01/13 12:07:34;;;;;;;0.60;0.60;;;;;;;;;;5050078;28;20042;-67
2022/01/13 12:09:59;;;;;;;0.45;0.45;;;;;;;;;;5082938;28;20525;-66
2022/01/13 12:12:29;;;;;;;0.30;0.30;;;;;;;;;;5088233;28;20028;-65
2022/01/13 12:15:12;;;;;;;0.30;0.30;;;;;;;;;;5069952;28;20024;-65
2022/01/13 12:17:49;;;;;;;0.60;0.60;;;;;;;;;;5087428;28;20441;-66
2022/01/13 12:23:25;;;;;;;0.35;0.35;;;;;;;;;;5088765;28;20040;-67
2022/01/13 12:25:50;;;;;;;0.30;0.30;;;;;;;;;;5088585;28;20051;-68
2022/01/13 12:28:18;;;;;;;0.30;0.30;;;;;;;;;;5087894;28;20020;-68
2022/01/13 12:30:43;;;;;;;0.30;0.30;;;;;;;;;;5052878;28;20032;-68
2022/01/13 12:33:09;;;;;;;0.50;0.50;;;;;;;;;;5087941;28;20032;-67
2022/01/13 12:35:34;;;;;;;0.30;0.30;;;;;;;;;;5088172;28;20031;-69
2022/01/13 12:38:00;;;;;;;0.50;0.50;;;;;;;;;;5088226;28;20043;-72
2022/01/13 12:40:26;;;;;;;0.93;0.90;;;;;;;;;;5088066;28;20035;-67
2022/01/13 12:42:52;;;;;;;0.38;0.38;;;;;;;;;;5071971;28;20032;-66
2022/01/13 12:45:32;;;;;;;0.30;0.30;;;;;;;;;;5072958;28;20051;-67
2022/01/13 12:48:16;;;;;;;0.30;0.30;;;;;;;;;;5091635;28;20032;-67
2022/01/13 12:50:43;;;;;;;0.30;0.30;;;;;;;;;;5073239;28;20036;-67
2022/01/13 12:53:09;;;;;;;1.67;1.00;;;;;;;;;;5073434;28;20035;-67
2022/01/13 12:55:36;;;;;;;0.52;0.52;;;;;;;;;;5056654;28;20036;-67
2022/01/13 12:58:02;;;;;;;0.52;0.40;;;;;;;;;;5072953;28;20016;-67
2022/01/13 13:00:28;;;;;;;4.93;1.38;;;;;;;;;;5091298;28;20103;-65
2022/01/13 13:03:06;;;;;;;1.17;0.65;;;;;;;;;;5088585;28;20115;-64
2022/01/13 13:05:38;;;;;;;1.40;0.95;;;;;;;;;;5072322;28;20040;-67
2022/01/13 13:08:04;;;;;;;0.20;0.20;;;;;;;;;;5055973;28;20046;-67
2022/01/13 13:10:29;;;;;;;0.20;0.20;;;;;;;;;;5056499;28;20031;-67
2022/01/13 13:12:55;;;;;;;0.40;0.40;;;;;;;;;;5091254;28;20032;-81
2022/01/13 13:17:49;;;;;;;4.63;1.45;;;;;;;;;;5090645;28;20020;-67
2022/01/13 13:20:28;;;;;;;34.90;1.35;;;;;;;;;;5071501;28;20055;-68
2022/01/13 13:22:56;;;;;;;3.47;2.05;;;;;;;;;;5053609;28;20153;-69
2022/01/13 13:25:29;;;;;;;0.80;0.80;;;;;;;;;;5070571;28;20040;-67
2022/01/13 13:27:54;;;;;;;0.28;0.28;;;;;;;;;;5053294;28;20024;-68
2022/01/13 13:30:20;;;;;;;0.30;0.30;;;;;;;;;;5088587;28;20035;-81
2022/01/13 13:32:51;;;;;;;1.13;0.85;;;;;;;;;;5089207;28;20039;-68
2022/01/13 13:35:20;;;;;;;0.40;0.40;;;;;;;;;;5053745;28;20126;-69
2022/01/13 13:37:46;;;;;;;0.35;0.35;;;;;;;;;;5088371;28;20025;-67
2022/01/13 13:40:24;;;;;;;2.05;1.95;;;;;;;;;;5088521;28;20028;-67
2022/01/13 13:43:08;;;;;;;0.20;0.20;;;;;;;;;;5088487;28;20196;-67
2022/01/13 13:45:33;;;;;;;0.30;0.30;;;;;;;;;;5088222;28;20451;-71
2022/01/13 13:47:59;;;;;;;1.08;0.82;;;;;;;;;;5070408;28;20103;-71
2022/01/13 13:50:25;;;;;;;1.95;1.05;;;;;;;;;;5090677;28;20071;-75
2022/01/13 13:53:04;;;;;;;1.90;1.52;;;;;;;;;;5054210;28;20036;-66
2022/01/13 13:55:29;;;;;;;1.55;1.10;;;;;;;;;;5072063;28;20388;-66
2022/01/13 13:57:55;;;;;;;3.28;1.27;;;;;;;;;;5089941;28;20047;-66
2022/01/13 14:00:23;;;;;;;0.98;0.88;;;;;;;;;;5071946;28;20032;-66
2022/01/13 14:02:52;;;;;;;5.95;1.70;;;;;;;;;;5055140;28;20421;-66
2022/01/13 14:05:18;;;;;;;1.00;0.80;;;;;;;;;;5055066;28;20031;-67
2022/01/13 14:07:46;;;;;;;0.22;0.22;;;;;;;;;;5089905;28;20411;-66
2022/01/13 14:10:21;;;;;;;2.05;1.45;;;;;;;;;;5055025;28;20066;-66
2022/01/13 14:12:46;;;;;;;2.08;1.38;;;;;;;;;;5071455;28;20032;-74
2022/01/13 14:15:18;;;;;;;0.90;0.63;;;;;;;;;;5089232;28;20020;-67
2022/01/13 14:17:44;;;;;;;1.95;1.30;;;;;;;;;;5089596;28;20064;-66
2022/01/13 14:20:11;;;;;;;0.10;0.10;;;;;;;;;;5055415;28;20086;-67
2022/01/13 14:22:37;;;;;;;1.38;1.00;;;;;;;;;;5089656;28;20040;-67
2022/01/13 14:25:08;;;;;;;0.20;0.20;;;;;;;;;;5089889;28;20040;-70
2022/01/13 14:27:33;;;;;;;0.20;0.20;;;;;;;;;;5055064;28;20032;-70
2022/01/13 14:29:59;;;;;;;1.33;1.23;;;;;;;;;;5089515;28;20039;-69
2022/01/13 14:32:25;;;;;;;0.50;0.50;;;;;;;;;;5089780;28;20468;-69
2022/01/13 14:34:52;;;;;;;0.57;0.57;;;;;;;;;;5089333;28;20040;-66
2022/01/13 14:37:18;;;;;;;2.40;1.15;;;;;;;;;;5089504;28;20031;-73
2022/01/13 14:40:02;;;;;;;0.75;0.65;;;;;;;;;;5054292;28;20028;-68
2022/01/13 14:42:29;;;;;;;0.20;0.20;;;;;;;;;;5071916;28;20035;-67
2022/01/13 14:45:15;;;;;;;0.30;0.30;;;;;;;;;;5054510;28;20468;-80
2022/01/13 14:47:41;;;;;;;3.60;0.70;;;;;;;;;;5082322;28;20411;-67
2022/01/13 14:50:06;;;;;;;1.98;1.17;;;;;;;;;;5089104;28;20036;-68
2022/01/13 14:52:32;;;;;;;1.25;0.85;;;;;;;;;;5089156;28;20026;-84
2022/01/13 14:54:57;;;;;;;0.93;0.80;;;;;;;;;;5089382;28;20039;-68
2022/01/13 14:57:22;;;;;;;3.25;1.48;;;;;;;;;;5086174;28;20600;-66
2022/01/13 14:59:48;;;;;;;3.60;0.80;;;;;;;;;;5070745;28;20034;-68
2022/01/13 15:02:15;;;;;;;0.30;0.30;;;;;;;;;;5088989;28;20040;-66
2022/01/13 15:04:41;;;;;;;7.82;2.85;;;;;;;;;;5069859;28;20097;-65
2022/01/13 15:07:07;;;;;;;4.72;2.25;;;;;;;;;;5070053;28;20062;-68
2022/01/13 15:09:32;;;;;;;0.47;0.45;;;;;;;;;;5054063;28;20028;-66
2022/01/13 15:11:58;;;;;;;10.32;1.52;;;;;;;;;;5089038;28;20038;-66
2022/01/13 15:14:24;;;;;;;0.30;0.30;;;;;;;;;;5054598;28;20412;-67
2022/01/13 15:16:50;;;;;;;1.90;1.40;;;;;;;;;;5070460;28;20032;-66
2022/01/13 15:19:16;;;;;;;3.00;1.05;;;;;;;;;;5088677;28;20089;-66
2022/01/13 15:21:44;;;;;;;2.08;1.88;;;;;;;;;;5053381;28;20522;-71
2022/01/13 15:24:10;;;;;;;2.20;1.45;;;;;;;;;;5070312;28;20128;-66
2022/01/13 15:26:36;;;;;;;1.05;0.98;;;;;;;;;;5070215;28;20497;-68